Time;durP1;ratioP1;P1;durP2;ratioP2;P2;SDS_P1;SDS_P2;PMS_P1;PMS_P2;Temp;Humidity;BMP_temperature;BMP_pressure;BME280_temperature;BME280_humidity;BME280_pressure;Samples;Min_cycle;Max_cycle;Signal;HPM_P1;HPM_P2
2023/04/30 00:02:12;;;;;;;4.55;1.20;;;;;;;14.31;42.79;101657.78;4971260;28;96806;-74
2023/04/30 00:04:39;;;;;;;5.13;0.95;;;;;;;14.08;43.01;101666.59;4969083;28;99776;-73
2023/04/30 00:07:05;;;;;;;7.78;1.55;;;;;;;14.10;42.96;101664.78;4981227;28;98849;-73
2023/04/30 00:09:32;;;;;;;6.03;1.50;;;;;;;13.93;43.02;101670.66;4972414;28;96942;-73
2023/04/30 00:11:58;;;;;;;6.85;1.25;;;;;;;14.01;42.77;101673.06;4971664;28;96757;-73
2023/04/30 00:14:25;;;;;;;6.28;1.73;;;;;;;13.72;43.15;101668.72;4970328;28;98871;-75
2023/04/30 00:16:51;;;;;;;6.70;1.13;;;;;;;13.69;43.10;101667.97;4973215;28;98189;-75
2023/04/30 00:19:18;;;;;;;9.00;1.27;;;;;;;13.70;43.24;101670.59;4977774;28;96875;-74
2023/04/30 00:21:46;;;;;;;10.25;2.10;;;;;;;13.75;42.92;101673.94;4971298;28;96919;-74
2023/04/30 00:24:12;;;;;;;8.13;1.45;;;;;;;13.67;43.23;101676.00;4970666;28;99151;-73
2023/04/30 00:26:39;;;;;;;6.78;1.40;;;;;;;13.80;43.03;101677.31;4971153;28;99484;-73
2023/04/30 00:29:05;;;;;;;9.80;1.48;;;;;;;13.63;43.01;101681.47;4968762;28;96914;-74
2023/04/30 00:31:32;;;;;;;8.25;1.73;;;;;;;13.85;42.98;101688.66;4967827;28;96815;-73
2023/04/30 00:33:58;;;;;;;8.32;1.67;;;;;;;13.84;42.86;101686.06;4973461;28;97671;-74
2023/04/30 00:36:24;;;;;;;6.43;1.45;;;;;;;13.65;43.61;101683.16;4976779;28;98885;-74
2023/04/30 00:38:52;;;;;;;6.32;1.17;;;;;;;13.68;43.51;101691.00;4973523;28;96759;-74
2023/04/30 00:41:20;;;;;;;9.43;1.50;;;;;;;13.72;43.54;101687.31;4977013;28;96764;-74
2023/04/30 00:43:46;;;;;;;5.93;1.65;;;;;;;13.59;43.73;101685.16;4969450;28;101363;-73
2023/04/30 00:46:13;;;;;;;15.07;2.28;;;;;;;13.69;43.69;101690.09;4970731;28;97672;-73
2023/04/30 00:48:39;;;;;;;9.27;1.80;;;;;;;13.73;43.70;101690.84;4969688;28;96806;-74
2023/04/30 00:51:06;;;;;;;8.30;1.17;;;;;;;13.79;43.77;101701.25;4970106;28;97477;-74
2023/04/30 00:53:34;;;;;;;4.97;1.45;;;;;;;13.77;44.31;101701.34;4969319;28;98834;-73
2023/04/30 00:56:02;;;;;;;5.45;1.40;;;;;;;13.61;44.49;101708.06;4969981;28;97890;-73
2023/04/30 00:58:29;;;;;;;8.95;1.80;;;;;;;13.63;44.82;101711.56;4966902;28;96942;-73
2023/04/30 01:00:56;;;;;;;6.78;1.67;;;;;;;13.57;44.99;101719.72;4970901;28;96778;-74
2023/04/30 01:03:22;;;;;;;8.02;1.50;;;;;;;13.63;45.03;101716.00;4967999;28;101527;-75
2023/04/30 01:05:49;;;;;;;6.85;1.70;;;;;;;13.63;44.78;101719.53;4970345;28;102309;-74
2023/04/30 01:08:15;;;;;;;7.50;1.67;;;;;;;13.66;44.64;101724.72;4976381;28;96754;-75
2023/04/30 01:10:53;;;;;;;10.65;1.70;;;;;;;13.49;44.93;101732.38;4969682;28;96797;-75
2023/04/30 01:13:29;;;;;;;11.02;2.65;;;;;;;13.57;44.66;101730.34;4969590;28;98958;-74
2023/04/30 01:16:00;;;;;;;11.70;2.13;;;;;;;13.49;45.09;101735.91;4969751;28;98921;-74
2023/04/30 01:18:30;;;;;;;10.02;1.80;;;;;;;13.37;45.43;101740.72;4969140;28;96739;-74
2023/04/30 01:21:04;;;;;;;10.13;1.95;;;;;;;13.46;45.32;101740.41;4969717;28;96826;-73
2023/04/30 01:23:48;;;;;;;11.88;1.90;;;;;;;13.35;45.63;101732.81;4973318;28;99041;-73
2023/04/30 01:26:20;;;;;;;6.28;1.60;;;;;;;13.31;45.79;101739.13;4968985;28;98862;-76
2023/04/30 01:28:50;;;;;;;8.13;2.17;;;;;;;13.22;46.03;101741.19;4971021;28;96778;-74
2023/04/30 01:31:19;;;;;;;10.70;2.00;;;;;;;13.28;46.04;101735.69;4969822;28;96786;-73
2023/04/30 01:33:45;;;;;;;8.30;1.80;;;;;;;13.35;45.68;101734.59;4969469;28;98058;-74
2023/04/30 01:36:24;;;;;;;14.57;2.15;;;;;;;13.30;46.07;101739.19;4970507;28;99251;-74
2023/04/30 01:39:19;;;;;;;11.10;1.65;;;;;;;13.26;46.06;101734.88;4964822;28;96895;-73
2023/04/30 01:41:55;;;;;;;8.50;2.13;;;;;;;13.28;46.25;101743.66;4965447;28;97077;-74
2023/04/30 01:44:37;;;;;;;5.45;1.38;;;;;;;13.10;46.78;101748.59;4976525;28;98967;-74
2023/04/30 01:47:08;;;;;;;12.13;2.08;;;;;;;13.24;46.47;101745.53;4969448;28;99363;-74
2023/04/30 01:49:48;;;;;;;10.07;2.00;;;;;;;13.41;46.06;101747.66;4969055;28;96846;-74
2023/04/30 01:52:19;;;;;;;10.50;1.85;;;;;;;13.21;46.38;101750.06;4979799;28;96777;-75
2023/04/30 01:54:51;;;;;;;12.02;2.13;;;;;;;12.82;47.53;101760.91;4971126;28;100501;-74
2023/04/30 01:57:22;;;;;;;8.70;2.25;;;;;;;13.02;47.18;101768.28;4969152;28;99093;-74
2023/04/30 01:59:50;;;;;;;82.93;46.03;;;;;;;13.00;47.44;101763.03;4967786;28;96781;-73
2023/04/30 02:02:17;;;;;;;12.60;2.88;;;;;;;12.80;47.86;101762.72;4964212;28;97812;-74
2023/04/30 02:04:43;;;;;;;8.68;2.50;;;;;;;12.54;48.55;101774.06;4974866;28;99073;-73
2023/04/30 02:07:10;;;;;;;7.43;2.70;;;;;;;12.76;47.96;101779.66;4962292;28;99257;-73
2023/04/30 02:09:36;;;;;;;8.65;2.22;;;;;;;12.66;48.13;101786.13;4968250;28;96908;-74
2023/04/30 02:12:03;;;;;;;9.45;2.00;;;;;;;12.71;48.02;101782.44;4972772;28;96908;-74
2023/04/30 02:14:31;;;;;;;13.65;2.47;;;;;;;12.80;47.63;101785.75;4969303;28;99059;-74
2023/04/30 02:16:59;;;;;;;12.85;2.30;;;;;;;12.88;47.47;101787.25;4955969;28;98978;-74
2023/04/30 02:19:25;;;;;;;10.60;2.05;;;;;;;12.97;47.79;101787.00;4966343;28;97174;-73
2023/04/30 02:21:51;;;;;;;8.95;2.30;;;;;;;12.96;47.69;101787.91;4959509;28;96890;-73
2023/04/30 02:24:18;;;;;;;8.32;2.17;;;;;;;12.92;48.01;101791.59;4969505;28;98967;-73
2023/04/30 02:26:44;;;;;;;8.82;2.00;;;;;;;12.98;47.99;101795.84;4969588;28;99419;-74
2023/04/30 02:29:10;;;;;;;7.78;2.17;;;;;;;12.79;48.38;101803.44;4969542;28;96766;-74
2023/04/30 02:31:37;;;;;;;6.57;2.00;;;;;;;12.67;48.67;101798.44;4970102;28;97292;-74
2023/04/30 02:34:05;;;;;;;5.60;1.70;;;;;;;12.84;47.92;101796.22;4968347;28;98922;-73
2023/04/30 02:36:35;;;;;;;10.80;2.00;;;;;;;12.85;48.00;101800.63;4968729;28;98866;-74
2023/04/30 02:39:01;;;;;;;6.20;1.58;;;;;;;12.75;48.27;101807.06;4968434;28;96935;-74
2023/04/30 02:41:27;;;;;;;12.00;1.90;;;;;;;12.48;48.80;101806.03;4967750;28;97227;-74
2023/04/30 02:43:54;;;;;;;8.43;1.85;;;;;;;12.33;49.45;101802.03;4968742;28;99258;-73
2023/04/30 02:46:20;;;;;;;7.70;1.95;;;;;;;12.47;48.95;101808.75;4968614;28;98829;-73
2023/04/30 02:48:47;;;;;;;7.35;1.83;;;;;;;12.42;49.17;101807.97;4967988;28;96898;-73
2023/04/30 02:51:15;;;;;;;7.22;1.70;;;;;;;12.27;49.40;101810.13;4976705;28;96856;-75
2023/04/30 02:53:41;;;;;;;4.13;1.70;;;;;;;12.11;50.15;101811.44;4978036;28;98059;-74
2023/04/30 02:56:07;;;;;;;10.45;1.67;;;;;;;12.17;49.86;101808.63;4976590;28;98852;-73
2023/04/30 02:58:34;;;;;;;5.53;1.90;;;;;;;12.11;50.04;101814.09;4971212;28;97763;-73
2023/04/30 03:01:01;;;;;;;8.23;1.83;;;;;;;12.12;49.99;101820.25;4972260;28;98659;-73
2023/04/30 03:03:27;;;;;;;4.32;1.60;;;;;;;11.97;50.58;101813.53;4971668;28;101560;-75
2023/04/30 03:05:55;;;;;;;7.13;2.22;;;;;;;12.01;50.44;101817.88;4971201;28;99473;-73
2023/04/30 03:08:23;;;;;;;11.68;2.33;;;;;;;11.86;50.65;101820.88;4972174;28;96880;-73
2023/04/30 03:10:49;;;;;;;4.40;1.65;;;;;;;11.92;50.68;101832.22;4971562;28;97515;-73
2023/04/30 03:13:16;;;;;;;6.20;2.10;;;;;;;11.53;51.41;101827.78;4981618;28;99178;-73
2023/04/30 03:15:43;;;;;;;10.20;2.50;;;;;;;11.51;51.57;101833.13;4972542;28;99992;-73
2023/04/30 03:18:10;;;;;;;7.78;1.90;;;;;;;11.41;51.93;101839.53;4972285;28;96974;-73
2023/04/30 03:20:36;;;;;;;13.20;3.30;;;;;;;11.42;51.67;101843.06;4971169;28;96912;-74
2023/04/30 03:23:03;;;;;;;8.43;1.98;;;;;;;11.32;51.85;101850.31;4971190;28;99136;-74
2023/04/30 03:25:30;;;;;;;11.38;2.17;;;;;;;11.51;51.70;101856.94;4971908;28;98357;-74
2023/04/30 03:27:57;;;;;;;14.07;2.28;;;;;;;11.50;51.50;101847.25;4974145;28;96739;-73
2023/04/30 03:30:23;;;;;;;7.65;2.25;;;;;;;11.23;52.28;101844.31;4975476;28;97345;-74
2023/04/30 03:32:50;;;;;;;7.68;2.33;;;;;;;11.29;52.05;101844.22;4974264;28;98943;-73
2023/04/30 03:35:17;;;;;;;9.38;2.45;;;;;;;11.28;52.36;101842.47;4980409;28;98988;-73
2023/04/30 03:37:44;;;;;;;6.32;2.10;;;;;;;11.35;52.49;101846.72;4971338;28;96790;-75
2023/04/30 03:40:11;;;;;;;5.28;2.30;;;;;;;11.36;52.17;101851.09;4974079;28;96785;-74
2023/04/30 03:42:39;;;;;;;8.82;2.17;;;;;;;11.50;51.52;101847.25;4971525;28;101993;-74
2023/04/30 03:45:07;;;;;;;6.45;2.95;;;;;;;11.82;51.07;101854.50;4971063;28;99153;-74
2023/04/30 03:47:34;;;;;;;8.52;2.00;;;;;;;11.41;51.46;101855.41;4970212;28;96931;-74
2023/04/30 03:50:00;;;;;;;9.63;2.60;;;;;;;11.50;51.82;101862.25;4972163;28;96794;-74
2023/04/30 03:52:26;;;;;;;9.77;2.47;;;;;;;11.48;51.64;101858.78;4975380;28;98856;-74
2023/04/30 03:54:53;;;;;;;6.60;2.25;;;;;;;11.51;51.79;101864.88;4971809;28;99206;-73
2023/04/30 03:57:19;;;;;;;7.88;2.33;;;;;;;11.56;51.33;101868.28;4974729;28;96747;-74
2023/04/30 03:59:47;;;;;;;8.48;2.38;;;;;;;11.46;51.87;101874.69;4976792;28;96894;-74
2023/04/30 04:02:14;;;;;;;8.00;2.40;;;;;;;11.49;51.89;101874.63;4971495;28;99089;-74
2023/04/30 04:04:40;;;;;;;7.35;2.05;;;;;;;11.42;51.63;101872.16;4976550;28;101731;-74
2023/04/30 04:07:08;;;;;;;8.15;2.35;;;;;;;11.45;51.80;101877.38;4980419;28;96717;-74
2023/04/30 04:09:35;;;;;;;8.45;2.08;;;;;;;11.39;51.73;101882.78;4972393;28;96852;-74
2023/04/30 04:12:01;;;;;;;12.30;2.38;;;;;;;11.57;51.07;101887.69;4970558;28;99468;-74
2023/04/30 04:14:28;;;;;;;6.82;2.17;;;;;;;11.50;50.96;101888.72;4971160;28;97464;-75
2023/04/30 04:16:56;;;;;;;9.10;2.30;;;;;;;11.40;51.72;101888.06;4974355;28;96923;-74
2023/04/30 04:19:23;;;;;;;10.82;2.05;;;;;;;11.40;51.44;101890.72;4973379;28;96875;-74
2023/04/30 04:21:49;;;;;;;10.02;3.10;;;;;;;11.35;51.84;101897.00;4973070;28;99177;-74
2023/04/30 04:24:15;;;;;;;6.25;2.63;;;;;;;11.59;51.13;101899.13;4975185;28;97591;-74
2023/04/30 04:26:42;;;;;;;5.50;2.10;;;;;;;11.39;51.46;101898.66;4973370;28;96812;-73
2023/04/30 04:29:11;;;;;;;4.85;2.53;;;;;;;11.55;50.98;101900.13;4972619;28;97217;-74
2023/04/30 04:31:37;;;;;;;5.55;2.17;;;;;;;12.06;50.22;101903.41;4974839;28;98270;-73
2023/04/30 04:34:05;;;;;;;6.35;2.00;;;;;;;11.94;49.58;101899.28;4970900;28;99784;-74
2023/04/30 04:36:33;;;;;;;4.28;2.00;;;;;;;11.66;50.12;101900.75;4968217;28;96981;-74
2023/04/30 04:39:00;;;;;;;12.10;2.72;;;;;;;12.08;49.46;101906.88;4964738;28;96765;-74
2023/04/30 04:41:27;;;;;;;9.43;2.33;;;;;;;12.00;49.67;101906.19;4973526;28;99235;-74
2023/04/30 04:43:55;;;;;;;7.72;2.60;;;;;;;11.95;49.46;101913.34;4978950;28;101197;-74
2023/04/30 04:46:31;;;;;;;5.60;2.08;;;;;;;11.91;49.91;101920.50;4974775;28;97133;-75
2023/04/30 04:49:01;;;;;;;9.93;2.05;;;;;;;12.12;49.34;101913.84;4967601;28;97018;-76
2023/04/30 04:51:31;;;;;;;9.57;2.33;;;;;;;12.21;48.79;101921.56;4976293;28;99193;-76
2023/04/30 04:54:02;;;;;;;6.05;2.38;;;;;;;12.07;48.93;101926.34;4972678;28;98900;-75
2023/04/30 04:56:29;;;;;;;8.93;2.53;;;;;;;12.26;48.98;101929.44;4972188;28;97168;-75
2023/04/30 04:58:56;;;;;;;6.53;2.42;;;;;;;12.20;49.23;101937.53;4974742;28;97126;-76
2023/04/30 05:01:25;;;;;;;10.07;2.70;;;;;;;12.50;48.03;101933.25;4970929;28;97509;-73
2023/04/30 05:04:01;;;;;;;7.68;2.72;;;;;;;12.61;47.67;101939.16;4971531;28;98168;-77
2023/04/30 05:06:28;;;;;;;8.88;2.65;;;;;;;12.56;47.79;101936.63;4972552;28;96970;-74
2023/04/30 05:09:01;;;;;;;13.00;2.83;;;;;;;12.38;48.49;101935.31;4973241;28;97001;-76
2023/04/30 05:11:27;;;;;;;5.63;2.33;;;;;;;12.52;47.90;101942.06;4969906;28;97831;-74
2023/04/30 05:13:54;;;;;;;6.47;1.98;;;;;;;12.56;47.86;101951.66;4970084;28;98882;-74
2023/04/30 05:16:20;;;;;;;12.52;2.40;;;;;;;13.00;47.48;101955.81;4977450;28;96808;-74
2023/04/30 05:18:46;;;;;;;11.98;2.50;;;;;;;13.16;46.50;101954.56;4970522;28;96918;-74
2023/04/30 05:21:13;;;;;;;6.35;2.67;;;;;;;13.15;46.53;101953.69;4970465;28;99155;-74
2023/04/30 05:23:39;;;;;;;12.88;2.20;;;;;;;13.01;46.07;101968.19;4970543;28;99365;-73
2023/04/30 05:26:07;;;;;;;5.97;1.95;;;;;;;12.60;47.23;101967.44;4969550;28;96730;-75
2023/04/30 05:28:34;;;;;;;9.07;2.80;;;;;;;12.69;47.47;101963.72;4974421;28;97795;-74
2023/04/30 05:31:00;;;;;;;9.02;2.30;;;;;;;12.77;47.02;101969.69;4969684;28;98899;-74
2023/04/30 05:33:27;;;;;;;7.90;2.40;;;;;;;12.83;46.69;101972.19;4969209;28;99918;-74
2023/04/30 05:35:53;;;;;;;11.18;2.65;;;;;;;12.89;46.81;101974.69;4970245;28;97111;-74
2023/04/30 05:38:20;;;;;;;7.65;3.00;;;;;;;13.33;46.47;101975.31;4967784;28;96796;-75
2023/04/30 05:40:46;;;;;;;13.98;2.63;;;;;;;14.25;44.32;101979.69;4961235;28;99299;-75
2023/04/30 05:43:14;;;;;;;9.32;2.38;;;;;;;14.51;43.22;101974.44;4963813;28;98915;-75
2023/04/30 05:45:40;;;;;;;10.52;2.60;;;;;;;14.09;43.04;101978.44;4959273;28;97764;-75
2023/04/30 05:48:06;;;;;;;10.05;2.85;;;;;;;14.28;43.01;101982.25;4964177;28;97024;-76
2023/04/30 05:50:33;;;;;;;8.27;3.03;;;;;;;13.84;44.10;101991.59;4969313;28;99351;-75
2023/04/30 05:53:00;;;;;;;10.68;2.95;;;;;;;13.95;43.91;101989.47;4964140;28;98994;-75
2023/04/30 05:55:27;;;;;;;11.15;3.17;;;;;;;14.26;43.42;101990.28;4958070;28;97085;-75
2023/04/30 05:57:53;;;;;;;11.45;2.92;;;;;;;14.22;43.14;101993.09;4965045;28;96874;-74
2023/04/30 06:00:21;;;;;;;11.85;2.80;;;;;;;14.40;42.84;101989.88;4957818;28;102354;-75
2023/04/30 06:02:47;;;;;;;10.07;2.97;;;;;;;13.92;43.63;101989.56;4966334;28;99144;-75
2023/04/30 06:05:14;;;;;;;9.95;2.60;;;;;;;13.98;43.66;101991.19;4959089;28;96653;-75
2023/04/30 06:07:40;;;;;;;10.20;2.80;;;;;;;13.68;44.20;101998.25;4969780;28;96780;-75
2023/04/30 06:10:08;;;;;;;13.43;2.83;;;;;;;13.69;43.99;101995.56;4965462;28;97724;-74
2023/04/30 06:12:34;;;;;;;14.27;4.22;;;;;;;13.79;44.14;101999.66;4967886;28;99581;-75
2023/04/30 06:15:01;;;;;;;10.30;2.92;;;;;;;14.02;43.28;102000.78;4972615;28;97077;-74
2023/04/30 06:17:28;;;;;;;10.77;3.20;;;;;;;14.08;43.35;102003.25;4967963;28;97000;-74
2023/04/30 06:19:55;;;;;;;9.63;2.80;;;;;;;14.42;42.97;102004.00;4965568;28;99016;-75
2023/04/30 06:22:21;;;;;;;11.32;3.17;;;;;;;14.51;41.88;102006.34;4971580;28;98929;-75
2023/04/30 06:24:47;;;;;;;11.13;2.90;;;;;;;14.50;41.75;102011.75;4969898;28;96968;-74
2023/04/30 06:27:14;;;;;;;19.08;4.07;;;;;;;14.68;41.47;102008.50;4976916;28;97372;-74
2023/04/30 06:29:40;;;;;;;11.32;3.00;;;;;;;14.27;42.05;102018.59;4973353;28;99268;-75
2023/04/30 06:32:07;;;;;;;10.70;2.92;;;;;;;13.78;42.67;102013.03;4971864;28;99261;-74
2023/04/30 06:34:35;;;;;;;14.40;3.90;;;;;;;14.09;42.51;102018.31;4965096;28;96886;-74
2023/04/30 06:37:02;;;;;;;8.93;3.08;;;;;;;14.74;41.87;102018.94;4969246;28;96915;-75
2023/04/30 06:39:28;;;;;;;15.50;2.70;;;;;;;14.85;41.04;102014.13;4960739;28;100930;-75
2023/04/30 06:41:54;;;;;;;9.32;2.67;;;;;;;15.06;40.64;102009.88;4963301;28;98783;-75
2023/04/30 06:44:21;;;;;;;9.40;3.03;;;;;;;15.38;39.53;102017.59;4971415;28;96836;-75
2023/04/30 06:46:47;;;;;;;14.65;3.10;;;;;;;15.10;39.27;102017.69;4974758;28;96959;-74
2023/04/30 06:49:14;;;;;;;12.93;3.00;;;;;;;15.05;39.50;102016.09;4971058;28;101792;-75
2023/04/30 06:51:41;;;;;;;9.60;2.97;;;;;;;14.75;40.45;102020.69;4960616;28;98888;-75
2023/04/30 06:54:08;;;;;;;14.38;2.80;;;;;;;14.59;40.79;102019.41;4966524;28;97344;-75
2023/04/30 06:56:34;;;;;;;12.65;3.15;;;;;;;14.77;39.99;102018.81;4968612;28;96930;-74
2023/04/30 06:59:02;;;;;;;9.63;3.13;;;;;;;15.14;39.29;102015.81;4967843;28;97691;-76
2023/04/30 07:01:29;;;;;;;12.65;3.05;;;;;;;14.99;38.75;102016.31;4966760;28;98856;-73
2023/04/30 07:03:55;;;;;;;9.82;2.72;;;;;;;15.06;38.70;102016.06;4973401;28;96964;-75
2023/04/30 07:06:22;;;;;;;9.63;2.78;;;;;;;14.93;38.84;102009.41;4972077;28;99679;-74
2023/04/30 07:08:50;;;;;;;11.27;3.05;;;;;;;15.12;38.59;102010.53;4968477;28;98434;-74
2023/04/30 07:11:16;;;;;;;9.38;2.38;;;;;;;15.13;38.95;102012.28;4968701;28;99180;-74
2023/04/30 07:13:43;;;;;;;15.35;3.67;;;;;;;15.19;38.65;102016.50;4965342;28;96881;-75
2023/04/30 07:16:09;;;;;;;11.20;3.28;;;;;;;15.24;37.64;102019.88;4966579;28;96807;-74
2023/04/30 07:18:36;;;;;;;9.32;3.15;;;;;;;15.77;36.96;102012.66;4966069;28;98974;-75
2023/04/30 07:21:03;;;;;;;10.43;3.00;;;;;;;15.86;36.47;102020.34;4970644;28;97639;-75
2023/04/30 07:23:30;;;;;;;11.85;3.28;;;;;;;16.11;36.53;102022.94;4964694;28;97291;-77
2023/04/30 07:25:57;;;;;;;15.68;3.40;;;;;;;16.59;35.59;102022.81;4967353;28;96939;-75
2023/04/30 07:28:24;;;;;;;12.73;5.65;;;;;;;16.70;34.55;102025.94;4966992;28;99396;-76
2023/04/30 07:30:51;;;;;;;10.73;3.47;;;;;;;16.54;34.39;102026.59;4966012;28;99365;-76
2023/04/30 07:33:17;;;;;;;10.32;2.95;;;;;;;16.71;34.58;102027.69;4968706;28;100342;-76
2023/04/30 07:35:44;;;;;;;12.15;3.08;;;;;;;17.06;33.94;102012.00;4973547;28;97050;-75
2023/04/30 07:38:10;;;;;;;8.40;2.92;;;;;;;16.81;34.45;102009.47;4963654;28;99380;-76
2023/04/30 07:40:37;;;;;;;7.05;2.83;;;;;;;16.72;34.57;102025.88;4967359;28;98126;-75
2023/04/30 07:43:05;;;;;;;9.45;2.47;;;;;;;16.53;34.51;102016.84;4970670;28;96944;-75
2023/04/30 07:45:32;;;;;;;8.10;1.95;;;;;;;17.01;33.55;102024.66;4965249;28;96958;-76
2023/04/30 07:47:59;;;;;;;10.43;2.53;;;;;;;17.25;32.97;102017.44;4970112;28;98413;-76
2023/04/30 07:50:27;;;;;;;9.82;2.65;;;;;;;17.14;33.11;102032.09;4970277;28;98953;-75
2023/04/30 07:52:53;;;;;;;7.18;2.22;;;;;;;16.70;32.26;102027.75;4967671;28;96810;-76
2023/04/30 07:55:20;;;;;;;10.40;3.13;;;;;;;16.66;33.10;102034.16;4971158;28;96805;-76
2023/04/30 07:57:46;;;;;;;9.90;2.90;;;;;;;16.60;33.12;102034.41;4970937;28;99241;-76
2023/04/30 08:00:14;;;;;;;8.65;2.30;;;;;;;16.72;33.27;102028.56;4968258;28;99014;-75
2023/04/30 08:02:42;;;;;;;11.30;2.65;;;;;;;16.79;33.06;102026.50;4969550;28;96833;-74
2023/04/30 08:05:09;;;;;;;13.00;2.50;;;;;;;16.92;32.80;102028.59;4971099;28;97133;-75
2023/04/30 08:07:35;;;;;;;9.77;2.95;;;;;;;17.02;32.92;102029.06;4966393;28;99405;-76
2023/04/30 08:10:02;;;;;;;11.93;2.65;;;;;;;17.25;32.51;102038.78;4969107;28;98853;-75
2023/04/30 08:12:29;;;;;;;7.60;2.80;;;;;;;17.58;32.04;102026.66;4969893;28;97633;-75
2023/04/30 08:14:59;;;;;;;9.45;2.25;;;;;;;17.28;31.83;102030.63;4969817;28;96991;-75
2023/04/30 08:17:27;;;;;;;11.63;3.10;;;;;;;17.10;32.35;102026.97;4976581;28;99579;-75
2023/04/30 08:19:54;;;;;;;10.32;3.35;;;;;;;17.51;32.27;102028.72;4969735;28;98854;-74
2023/04/30 08:22:20;;;;;;;14.52;2.70;;;;;;;17.38;31.98;102024.84;4970054;28;97340;-76
2023/04/30 08:24:47;;;;;;;11.20;2.65;;;;;;;17.13;32.29;102035.69;4970143;28;96876;-77
2023/04/30 08:27:14;;;;;;;10.75;2.75;;;;;;;16.87;32.64;102043.91;4970433;28;99211;-76
2023/04/30 08:29:40;;;;;;;7.32;2.72;;;;;;;17.15;31.90;102040.97;4979346;28;97778;-75
2023/04/30 08:32:07;;;;;;;8.00;2.67;;;;;;;17.19;31.89;102037.25;4979066;28;96699;-74
2023/04/30 08:34:35;;;;;;;11.00;2.95;;;;;;;16.59;32.94;102041.50;4968613;28;97832;-74
2023/04/30 08:37:02;;;;;;;9.32;2.47;;;;;;;17.09;32.39;102035.91;4966514;28;98846;-75
2023/04/30 08:39:28;;;;;;;9.60;3.05;;;;;;;17.34;31.90;102041.06;4971312;28;98082;-74
2023/04/30 08:41:56;;;;;;;10.02;2.85;;;;;;;17.43;30.90;102032.66;4967451;28;96903;-75
2023/04/30 08:44:23;;;;;;;10.50;2.78;;;;;;;17.51;30.36;102034.06;4969888;28;97369;-75
2023/04/30 08:46:54;;;;;;;8.93;2.60;;;;;;;17.24;30.81;102037.06;4969505;28;99232;-76
2023/04/30 08:49:21;;;;;;;7.57;1.83;;;;;;;16.92;31.26;102027.75;4966521;28;98355;-77
2023/04/30 08:51:49;;;;;;;9.48;2.60;;;;;;;16.91;31.55;102032.19;4969905;28;96864;-76
2023/04/30 08:54:18;;;;;;;7.38;2.88;;;;;;;16.79;31.61;102032.72;4969530;28;96851;-76
2023/04/30 08:56:45;;;;;;;10.05;2.97;;;;;;;17.10;31.16;102033.16;4969013;28;99429;-75
2023/04/30 08:59:12;;;;;;;10.77;2.80;;;;;;;17.22;29.96;102036.25;4972153;28;98827;-76
2023/04/30 09:01:38;;;;;;;10.80;2.75;;;;;;;17.22;29.62;102033.56;4965948;28;97211;-75
2023/04/30 09:04:06;;;;;;;6.88;2.10;;;;;;;17.34;29.00;102028.56;4968558;28;97456;-76
2023/04/30 09:06:32;;;;;;;12.27;2.40;;;;;;;17.11;29.49;102034.91;4969067;28;98922;-75
2023/04/30 09:09:09;;;;;;;7.50;2.40;;;;;;;16.92;29.73;102047.28;4968418;28;98400;-75
2023/04/30 09:11:36;;;;;;;10.77;2.70;;;;;;;17.07;28.73;102040.44;4973374;28;97046;-76
2023/04/30 09:14:02;;;;;;;7.90;2.80;;;;;;;17.29;27.82;102041.25;4969445;28;97481;-76
2023/04/30 09:16:31;;;;;;;5.82;2.25;;;;;;;17.16;28.10;102039.19;4966574;28;100049;-76
2023/04/30 09:18:59;;;;;;;5.25;1.85;;;;;;;16.94;28.56;102033.84;4966303;28;99335;-75
2023/04/30 09:21:32;;;;;;;6.47;2.33;;;;;;;17.10;28.61;102045.66;4968102;28;97323;-74
2023/04/30 09:24:02;;;;;;;5.70;1.73;;;;;;;17.48;28.26;102038.66;4968442;28;96933;-76
2023/04/30 09:26:31;;;;;;;5.13;1.80;;;;;;;17.66;27.20;102039.66;4975288;28;99062;-75
2023/04/30 09:28:59;;;;;;;7.25;1.77;;;;;;;17.25;26.96;102039.66;4969787;28;101849;-75
2023/04/30 09:31:26;;;;;;;7.00;1.67;;;;;;;17.00;27.30;102036.31;4974507;28;97440;-75
2023/04/30 09:33:53;;;;;;;7.30;1.75;;;;;;;16.67;28.16;102044.72;4968066;28;97008;-76
2023/04/30 09:36:20;;;;;;;11.07;2.63;;;;;;;17.15;28.03;102046.31;4971357;28;99226;-77
2023/04/30 09:38:47;;;;;;;6.63;1.77;;;;;;;17.18;26.98;102050.66;4972553;28;98881;-75
2023/04/30 09:41:26;;;;;;;4.78;1.77;;;;;;;17.52;26.74;102046.47;4981009;28;96728;-75
2023/04/30 09:43:53;;;;;;;7.88;2.30;;;;;;;17.69;26.63;102040.41;4977784;28;99816;-76
2023/04/30 09:46:20;;;;;;;6.93;2.08;;;;;;;17.87;26.03;102044.06;4979875;28;97078;-76
2023/04/30 09:48:56;;;;;;;6.00;1.50;;;;;;;17.71;25.75;102043.91;4984347;28;98795;-76
2023/04/30 09:51:22;;;;;;;7.85;2.17;;;;;;;18.08;25.25;102045.75;4973517;28;96843;-76
2023/04/30 09:53:50;;;;;;;8.18;1.95;;;;;;;17.61;25.43;102045.22;4970775;28;96955;-75
2023/04/30 09:56:20;;;;;;;4.03;1.92;;;;;;;17.57;25.43;102046.28;4959696;28;98946;-76
2023/04/30 09:58:51;;;;;;;6.82;1.73;;;;;;;17.43;25.97;102035.31;4959235;28;99091;-75
2023/04/30 10:01:18;;;;;;;5.13;1.88;;;;;;;17.38;25.23;102042.69;4963020;28;99470;-75
2023/04/30 10:03:46;;;;;;;6.20;2.00;;;;;;;17.51;25.62;102036.72;4963745;28;96820;-76
2023/04/30 10:06:14;;;;;;;3.50;1.45;;;;;;;17.40;25.04;102032.78;4966724;28;99017;-76
2023/04/30 10:08:42;;;;;;;9.00;2.00;;;;;;;17.61;25.15;102026.53;4972764;28;99340;-74
2023/04/30 10:11:11;;;;;;;6.00;1.55;;;;;;;17.38;25.68;102040.88;4974326;28;96809;-76
2023/04/30 10:13:43;;;;;;;4.28;1.83;;;;;;;17.34;25.97;102028.56;4968481;28;96872;-75
2023/04/30 10:16:18;;;;;;;5.75;1.75;;;;;;;17.31;25.83;102022.50;4964218;28;98889;-76
2023/04/30 10:18:47;;;;;;;7.35;1.70;;;;;;;17.26;25.79;102030.72;4964640;28;97825;-74
2023/04/30 10:21:17;;;;;;;6.43;1.80;;;;;;;17.00;26.34;102028.28;4973327;28;97087;-75
2023/04/30 10:23:44;;;;;;;6.03;1.70;;;;;;;17.53;26.00;102023.28;4972390;28;97212;-76
2023/04/30 10:26:12;;;;;;;5.07;1.98;;;;;;;17.44;25.89;102029.06;4967504;28;98956;-75
2023/04/30 10:28:39;;;;;;;6.80;2.20;;;;;;;17.59;26.23;102028.34;4965253;28;99060;-75
2023/04/30 10:31:07;;;;;;;4.30;1.70;;;;;;;17.54;26.07;102025.03;4970529;28;96981;-75
2023/04/30 10:33:48;;;;;;;6.82;2.28;;;;;;;17.60;26.23;102023.88;4969878;28;96771;-75
2023/04/30 10:36:22;;;;;;;5.93;1.73;;;;;;;17.84;26.39;102018.34;4969227;28;99284;-75
2023/04/30 10:38:48;;;;;;;6.47;1.90;;;;;;;17.50;26.40;102016.28;4969120;28;98303;-76
2023/04/30 10:41:15;;;;;;;5.10;2.08;;;;;;;17.75;26.61;102017.88;4972120;28;97143;-76
2023/04/30 10:43:41;;;;;;;5.68;2.55;;;;;;;17.58;26.40;102010.59;4963264;28;96830;-76
2023/04/30 10:46:08;;;;;;;7.93;2.80;;;;;;;17.57;26.18;102003.53;4964833;28;99385;-75
2023/04/30 10:48:36;;;;;;;6.45;1.95;;;;;;;17.55;26.43;102013.41;4964854;28;101972;-76
2023/04/30 10:51:03;;;;;;;5.78;2.25;;;;;;;17.49;26.84;102011.00;4968582;28;96795;-75
2023/04/30 10:53:31;;;;;;;6.38;1.90;;;;;;;17.39;26.68;102001.66;4968138;28;97276;-74
2023/04/30 10:56:05;;;;;;;8.00;1.60;;;;;;;17.51;26.55;102006.47;4963705;28;97735;-75
2023/04/30 10:58:33;;;;;;;6.38;3.00;;;;;;;17.49;26.68;102001.19;4961558;28;97698;-75
2023/04/30 11:01:01;;;;;;;4.95;2.20;;;;;;;17.00;27.17;102002.44;4963531;28;96873;-77
2023/04/30 11:03:29;;;;;;;6.43;2.20;;;;;;;17.35;27.26;102000.06;4968655;28;96967;-76
2023/04/30 11:05:57;;;;;;;6.10;2.08;;;;;;;17.39;26.90;101993.66;4964885;28;99026;-75
2023/04/30 11:08:33;;;;;;;9.27;1.90;;;;;;;17.48;27.02;101994.09;4969972;28;98772;-76
2023/04/30 11:11:00;;;;;;;5.72;2.58;;;;;;;17.50;25.64;101994.91;4962693;28;96835;-75
2023/04/30 11:13:27;;;;;;;4.50;2.03;;;;;;;17.40;24.61;101990.88;4964345;28;98089;-77
2023/04/30 11:15:54;;;;;;;9.93;4.38;;;;;;;17.60;25.51;101998.03;4963886;28;101730;-75
2023/04/30 11:18:20;;;;;;;5.88;1.65;;;;;;;17.64;24.91;101994.31;4974273;28;97998;-75
2023/04/30 11:20:50;;;;;;;5.63;1.60;;;;;;;17.36;25.03;101985.75;4973551;28;96789;-75
2023/04/30 11:23:23;;;;;;;6.00;2.25;;;;;;;17.46;25.51;101989.75;4973924;28;97340;-75
2023/04/30 11:25:54;;;;;;;8.93;2.45;;;;;;;17.33;26.62;101999.25;4970937;28;97776;-75